METAR UND TAF INFORMATION

METAR FOR LDZA
ADDS - METARS form results

(0158 UTC 26 June 2022)
Data provider http://aviationweather.gov/metar/data/
 
METAR text: LDZA 260130Z 23001KT 9999 R22/1300U MIFG NSC 18/17 Q1014 NOSIG
Conditions at: LDZA (ZAGREB/PLESO , HR) observed 0130 UTC 26 June 2022
Temperature: 18.0°C (64°F)
Dewpoint: 17.0°C (63°F) [RH = 94%]
Pressure (altimeter): 29.94 inches Hg (1014.0 mb)
Winds: from the SW (230 degrees) at 1 MPH (1 knots; 0.5 m/s)
Visibility: 6 or more miles (10+ km)
Ceiling: at least 12,000 feet AGL
Clouds: sky clear below 12,000 feet AGL
Weather: MIFG  (shallow fog)

METAR text: LDZA 260100Z VRB01KT 9999 MIFG NSC 18/17 Q1014 NOSIG
Conditions at: LDZA (ZAGREB/PLESO , HR) observed 0100 UTC 26 June 2022
Temperature: 18.0°C (64°F)
Dewpoint: 17.0°C (63°F) [RH = 94%]
Pressure (altimeter): 29.94 inches Hg (1014.0 mb)
Winds: variable direction winds at 1 MPH (1 knots; 0.5 m/s)
Visibility: 6 or more miles (10+ km)
Ceiling: at least 12,000 feet AGL
Clouds: sky clear below 12,000 feet AGL
Weather: MIFG  (shallow fog)

Forecast for: LDZA (ZAGREB/PLESO , HR)
Text: TAF LDZA 252325Z 2600/2700 22005KT CAVOK TX33/2613Z TN16/2602Z
Forecast period: 0000 UTC 26 June 2022 to 0000 UTC 27 June 2022
Forecast type: FROM: standard forecast or significant change
Winds: from the SW (220 degrees) at 6 MPH (5 knots; 2.6 m/s)
Visibility: 6 or more miles (10+ km)
Ceiling: unknown
Clouds: missing
Weather: no significant weather forecast for this period
Text: TEMPO 2612/2618 22008KT
Forecast period: 1200 to 1800 UTC 26 June 2022
Forecast type: TEMPORARY: The following changes expected for less than half the time period
Winds: from the SW (220 degrees) at 9 MPH (8 knots; 4.1 m/s)
Visibility: missing
Ceiling: unknown
Clouds: missing
Weather: no significant weather forecast for this period

 FLUGHAFENKARTE

 RUNWAY INFORMATION
Runway 05 Runway length 10669 ft Runway width 148 ft
Runway elevation 353 ft Runway displaced threshold 0 ft Runway heading 47
Runway 23 Runway length 10669 ft Runway width 148 ft
Runway elevation 348 ft Runway displaced threshold 0 ft Runway heading 227

 AIRPORT FREQUENCIES
Type APP Name APP Frequency 120.7 MHZ
Type ATIS Name ATIS Frequency 124.375 MHZ
Type GND Name GND Frequency 121.85 MHZ
Type INFO Name INFO Frequency 124.85 MHZ
Type RDR Name RADAR Frequency 120.7 MHZ
Type TWR Name TWR Frequency 118.3 MHZ

 AIRPORT NEAR NAVIGATION AIDS
Type DME Name Iza Frequency 109500 KHZ
Type NDB Name Pisarovina Frequency 424 KHZ
Type NDB Name S.kKaljevec Frequency 350 KHZ
Type NDB Name Velika Gorica Frequency 325 KHZ
Type VOR-DME Name Zagreb Frequency 113700 KHZ
Type NDB Name Zagreb Frequency 367 KHZ